Terminal Aerodrome Forecast
Issued by NWS Corpus Christi, TX

Home | Current Version | Previous Version | Text Only | Print | Product List | Glossary On
Versions: 1 2 3 4 5 6 7 8 9 10 11 12 13 14 15 16 17 18 19
000
FTUS44 KCRP 180500
TAFVCT
TAF
KVCT 180539Z 1806/1906 02004KT P6SM OVC050
     FM180900 02006KT 5SM BR OVC003
     FM181300 02010KT P6SM BKN008 OVC015
     FM181700 02012KT P6SM BKN040
     FM190200 VRB03KT P6SM BKN050=

USA.gov is the U.S. government's official web portal to all federal, state and local government web resources and services.